sensor_id;sensor_type;location;lat;lon;timestamp;P1;durP1;ratioP1;P2;durP2;ratioP2
48524;SDS011;34316;51.514;-0.178;2022-12-18T00:00:56;7.75;;;5.22;;
48524;SDS011;34316;51.514;-0.178;2022-12-18T00:02:57;6.90;;;5.10;;
48524;SDS011;34316;51.514;-0.178;2022-12-18T00:04:59;7.07;;;5.13;;
48524;SDS011;34316;51.514;-0.178;2022-12-18T00:07:01;7.07;;;4.95;;
48524;SDS011;34316;51.514;-0.178;2022-12-18T00:09:02;7.53;;;5.55;;
48524;SDS011;34316;51.514;-0.178;2022-12-18T00:11:05;7.15;;;5.43;;
48524;SDS011;34316;51.514;-0.178;2022-12-18T00:13:07;7.57;;;5.47;;
48524;SDS011;34316;51.514;-0.178;2022-12-18T00:15:10;6.97;;;5.30;;
48524;SDS011;34316;51.514;-0.178;2022-12-18T00:17:12;7.57;;;5.60;;
48524;SDS011;34316;51.514;-0.178;2022-12-18T00:19:14;6.32;;;4.70;;
48524;SDS011;34316;51.514;-0.178;2022-12-18T00:21:15;7.75;;;5.60;;
48524;SDS011;34316;51.514;-0.178;2022-12-18T00:23:17;7.40;;;5.55;;
48524;SDS011;34316;51.514;-0.178;2022-12-18T00:25:19;7.75;;;5.82;;
48524;SDS011;34316;51.514;-0.178;2022-12-18T00:27:21;10.55;;;6.22;;
48524;SDS011;34316;51.514;-0.178;2022-12-18T00:29:22;8.90;;;6.13;;
48524;SDS011;34316;51.514;-0.178;2022-12-18T00:31:24;9.40;;;5.50;;
48524;SDS011;34316;51.514;-0.178;2022-12-18T00:33:26;6.53;;;5.38;;
48524;SDS011;34316;51.514;-0.178;2022-12-18T00:35:28;8.38;;;6.47;;
48524;SDS011;34316;51.514;-0.178;2022-12-18T00:37:30;7.95;;;5.60;;
48524;SDS011;34316;51.514;-0.178;2022-12-18T00:39:32;7.93;;;5.50;;
48524;SDS011;34316;51.514;-0.178;2022-12-18T00:41:34;7.18;;;5.35;;
48524;SDS011;34316;51.514;-0.178;2022-12-18T00:43:54;9.15;;;6.35;;
48524;SDS011;34316;51.514;-0.178;2022-12-18T00:45:55;8.43;;;5.85;;
48524;SDS011;34316;51.514;-0.178;2022-12-18T00:47:57;8.52;;;6.15;;
48524;SDS011;34316;51.514;-0.178;2022-12-18T00:49:59;9.27;;;6.70;;
48524;SDS011;34316;51.514;-0.178;2022-12-18T00:52:01;10.60;;;7.32;;
48524;SDS011;34316;51.514;-0.178;2022-12-18T00:54:02;10.20;;;7.05;;
48524;SDS011;34316;51.514;-0.178;2022-12-18T00:56:04;9.75;;;7.15;;
48524;SDS011;34316;51.514;-0.178;2022-12-18T00:58:06;9.30;;;6.65;;
48524;SDS011;34316;51.514;-0.178;2022-12-18T01:00:11;10.30;;;7.30;;
48524;SDS011;34316;51.514;-0.178;2022-12-18T01:02:14;10.52;;;6.80;;
48524;SDS011;34316;51.514;-0.178;2022-12-18T01:04:16;8.55;;;6.95;;
48524;SDS011;34316;51.514;-0.178;2022-12-18T01:06:17;10.25;;;7.38;;
48524;SDS011;34316;51.514;-0.178;2022-12-18T01:08:19;10.32;;;7.40;;
48524;SDS011;34316;51.514;-0.178;2022-12-18T01:10:21;9.75;;;7.22;;
48524;SDS011;34316;51.514;-0.178;2022-12-18T01:12:23;10.40;;;6.38;;
48524;SDS011;34316;51.514;-0.178;2022-12-18T01:14:25;11.18;;;7.38;;
48524;SDS011;34316;51.514;-0.178;2022-12-18T01:16:26;13.30;;;8.48;;
48524;SDS011;34316;51.514;-0.178;2022-12-18T01:18:28;10.48;;;7.43;;
48524;SDS011;34316;51.514;-0.178;2022-12-18T01:20:30;9.68;;;7.30;;
48524;SDS011;34316;51.514;-0.178;2022-12-18T01:22:31;11.30;;;7.93;;
48524;SDS011;34316;51.514;-0.178;2022-12-18T01:24:33;10.98;;;8.18;;
48524;SDS011;34316;51.514;-0.178;2022-12-18T01:26:35;12.07;;;8.77;;
48524;SDS011;34316;51.514;-0.178;2022-12-18T01:28:37;11.85;;;8.55;;
48524;SDS011;34316;51.514;-0.178;2022-12-18T01:30:41;10.93;;;8.27;;
48524;SDS011;34316;51.514;-0.178;2022-12-18T01:32:43;11.07;;;8.00;;
48524;SDS011;34316;51.514;-0.178;2022-12-18T01:34:44;11.38;;;8.18;;
48524;SDS011;34316;51.514;-0.178;2022-12-18T01:36:46;12.60;;;9.13;;
48524;SDS011;34316;51.514;-0.178;2022-12-18T01:38:48;12.25;;;8.15;;
48524;SDS011;34316;51.514;-0.178;2022-12-18T01:40:51;10.07;;;7.70;;
48524;SDS011;34316;51.514;-0.178;2022-12-18T01:42:58;11.15;;;8.45;;
48524;SDS011;34316;51.514;-0.178;2022-12-18T01:47:18;11.95;;;8.00;;
48524;SDS011;34316;51.514;-0.178;2022-12-18T01:49:24;12.35;;;9.00;;
48524;SDS011;34316;51.514;-0.178;2022-12-18T01:51:29;8.90;;;7.07;;
48524;SDS011;34316;51.514;-0.178;2022-12-18T01:53:31;11.68;;;8.27;;
48524;SDS011;34316;51.514;-0.178;2022-12-18T01:55:52;9.85;;;7.15;;
48524;SDS011;34316;51.514;-0.178;2022-12-18T01:57:56;11.00;;;8.48;;
48524;SDS011;34316;51.514;-0.178;2022-12-18T02:00:00;11.20;;;7.43;;
48524;SDS011;34316;51.514;-0.178;2022-12-18T02:02:05;12.15;;;8.10;;
48524;SDS011;34316;51.514;-0.178;2022-12-18T02:06:27;12.93;;;9.02;;
48524;SDS011;34316;51.514;-0.178;2022-12-18T02:08:52;10.00;;;7.80;;
48524;SDS011;34316;51.514;-0.178;2022-12-18T02:13:42;12.23;;;8.48;;
48524;SDS011;34316;51.514;-0.178;2022-12-18T02:20:14;11.05;;;7.95;;
48524;SDS011;34316;51.514;-0.178;2022-12-18T02:27:28;11.65;;;8.10;;
48524;SDS011;34316;51.514;-0.178;2022-12-18T02:29:32;11.18;;;8.90;;
48524;SDS011;34316;51.514;-0.178;2022-12-18T02:31:50;11.02;;;8.77;;
48524;SDS011;34316;51.514;-0.178;2022-12-18T02:33:57;12.52;;;8.75;;
48524;SDS011;34316;51.514;-0.178;2022-12-18T02:36:01;12.68;;;8.50;;
48524;SDS011;34316;51.514;-0.178;2022-12-18T02:38:04;12.15;;;8.65;;
48524;SDS011;34316;51.514;-0.178;2022-12-18T02:40:06;12.00;;;8.75;;
48524;SDS011;34316;51.514;-0.178;2022-12-18T02:42:09;10.35;;;7.97;;
48524;SDS011;34316;51.514;-0.178;2022-12-18T02:44:13;11.32;;;8.05;;
48524;SDS011;34316;51.514;-0.178;2022-12-18T02:46:32;13.75;;;8.95;;
48524;SDS011;34316;51.514;-0.178;2022-12-18T02:48:36;13.30;;;8.85;;
48524;SDS011;34316;51.514;-0.178;2022-12-18T02:50:39;11.95;;;8.85;;
48524;SDS011;34316;51.514;-0.178;2022-12-18T02:57:34;10.23;;;8.18;;
48524;SDS011;34316;51.514;-0.178;2022-12-18T03:04:26;11.93;;;8.27;;
48524;SDS011;34316;51.514;-0.178;2022-12-18T03:06:37;11.93;;;8.40;;
48524;SDS011;34316;51.514;-0.178;2022-12-18T03:08:42;11.90;;;8.52;;
48524;SDS011;34316;51.514;-0.178;2022-12-18T03:10:50;10.80;;;7.80;;
48524;SDS011;34316;51.514;-0.178;2022-12-18T03:13:05;10.45;;;8.10;;
48524;SDS011;34316;51.514;-0.178;2022-12-18T03:15:20;9.45;;;7.63;;
48524;SDS011;34316;51.514;-0.178;2022-12-18T03:17:26;9.70;;;7.15;;
48524;SDS011;34316;51.514;-0.178;2022-12-18T03:19:29;10.00;;;7.28;;
48524;SDS011;34316;51.514;-0.178;2022-12-18T03:21:38;10.55;;;7.90;;
48524;SDS011;34316;51.514;-0.178;2022-12-18T03:23:44;9.98;;;7.70;;
48524;SDS011;34316;51.514;-0.178;2022-12-18T03:25:49;11.90;;;7.72;;
48524;SDS011;34316;51.514;-0.178;2022-12-18T03:27:53;9.57;;;7.55;;
48524;SDS011;34316;51.514;-0.178;2022-12-18T03:30:01;11.48;;;8.35;;
48524;SDS011;34316;51.514;-0.178;2022-12-18T03:32:12;12.80;;;7.60;;
48524;SDS011;34316;51.514;-0.178;2022-12-18T03:34:21;11.52;;;7.82;;
48524;SDS011;34316;51.514;-0.178;2022-12-18T03:36:31;10.43;;;8.02;;
48524;SDS011;34316;51.514;-0.178;2022-12-18T03:38:33;10.02;;;7.35;;
48524;SDS011;34316;51.514;-0.178;2022-12-18T03:40:43;9.63;;;6.85;;
48524;SDS011;34316;51.514;-0.178;2022-12-18T03:42:52;11.13;;;7.72;;
48524;SDS011;34316;51.514;-0.178;2022-12-18T03:47:39;9.50;;;6.38;;
48524;SDS011;34316;51.514;-0.178;2022-12-18T03:50:00;11.13;;;7.05;;
48524;SDS011;34316;51.514;-0.178;2022-12-18T03:54:40;9.45;;;6.78;;
48524;SDS011;34316;51.514;-0.178;2022-12-18T03:56:47;9.18;;;6.10;;
48524;SDS011;34316;51.514;-0.178;2022-12-18T03:58:50;9.85;;;6.90;;
48524;SDS011;34316;51.514;-0.178;2022-12-18T04:00:54;9.63;;;7.00;;
48524;SDS011;34316;51.514;-0.178;2022-12-18T04:02:57;9.43;;;6.72;;
48524;SDS011;34316;51.514;-0.178;2022-12-18T04:07:03;10.77;;;6.60;;
48524;SDS011;34316;51.514;-0.178;2022-12-18T04:09:05;9.05;;;6.85;;
48524;SDS011;34316;51.514;-0.178;2022-12-18T04:11:07;8.88;;;6.53;;
48524;SDS011;34316;51.514;-0.178;2022-12-18T04:13:09;11.50;;;7.90;;
48524;SDS011;34316;51.514;-0.178;2022-12-18T04:15:11;9.55;;;6.80;;
48524;SDS011;34316;51.514;-0.178;2022-12-18T04:17:14;9.23;;;7.33;;
48524;SDS011;34316;51.514;-0.178;2022-12-18T04:19:15;9.85;;;7.57;;
48524;SDS011;34316;51.514;-0.178;2022-12-18T04:21:17;10.23;;;7.18;;
48524;SDS011;34316;51.514;-0.178;2022-12-18T04:23:19;10.98;;;7.50;;
48524;SDS011;34316;51.514;-0.178;2022-12-18T04:25:20;10.27;;;7.30;;
48524;SDS011;34316;51.514;-0.178;2022-12-18T04:27:22;9.77;;;7.57;;
48524;SDS011;34316;51.514;-0.178;2022-12-18T04:29:24;11.10;;;8.00;;
48524;SDS011;34316;51.514;-0.178;2022-12-18T04:31:25;11.07;;;7.15;;
48524;SDS011;34316;51.514;-0.178;2022-12-18T04:33:28;11.20;;;7.85;;
48524;SDS011;34316;51.514;-0.178;2022-12-18T04:35:30;11.35;;;8.10;;
48524;SDS011;34316;51.514;-0.178;2022-12-18T04:37:32;11.50;;;7.82;;
48524;SDS011;34316;51.514;-0.178;2022-12-18T04:39:33;10.88;;;7.38;;
48524;SDS011;34316;51.514;-0.178;2022-12-18T04:41:35;13.57;;;7.97;;
48524;SDS011;34316;51.514;-0.178;2022-12-18T04:43:37;11.93;;;8.25;;
48524;SDS011;34316;51.514;-0.178;2022-12-18T04:45:39;12.35;;;9.00;;
48524;SDS011;34316;51.514;-0.178;2022-12-18T04:47:41;10.93;;;8.13;;
48524;SDS011;34316;51.514;-0.178;2022-12-18T04:49:42;13.75;;;8.63;;
48524;SDS011;34316;51.514;-0.178;2022-12-18T04:51:44;13.27;;;8.98;;
48524;SDS011;34316;51.514;-0.178;2022-12-18T04:53:45;14.65;;;9.38;;
48524;SDS011;34316;51.514;-0.178;2022-12-18T04:55:47;14.20;;;9.10;;
48524;SDS011;34316;51.514;-0.178;2022-12-18T04:57:49;12.38;;;9.00;;
48524;SDS011;34316;51.514;-0.178;2022-12-18T04:59:50;13.20;;;9.05;;
48524;SDS011;34316;51.514;-0.178;2022-12-18T05:01:52;12.77;;;8.95;;
48524;SDS011;34316;51.514;-0.178;2022-12-18T05:03:54;13.00;;;9.48;;
48524;SDS011;34316;51.514;-0.178;2022-12-18T05:05:56;15.85;;;9.35;;
48524;SDS011;34316;51.514;-0.178;2022-12-18T05:07:57;12.98;;;9.65;;
48524;SDS011;34316;51.514;-0.178;2022-12-18T05:09:59;13.82;;;9.75;;
48524;SDS011;34316;51.514;-0.178;2022-12-18T05:12:01;15.75;;;10.43;;
48524;SDS011;34316;51.514;-0.178;2022-12-18T05:14:02;19.38;;;10.32;;
48524;SDS011;34316;51.514;-0.178;2022-12-18T05:16:04;15.25;;;10.65;;
48524;SDS011;34316;51.514;-0.178;2022-12-18T05:18:07;15.95;;;10.23;;
48524;SDS011;34316;51.514;-0.178;2022-12-18T05:20:09;15.55;;;11.18;;
48524;SDS011;34316;51.514;-0.178;2022-12-18T05:22:11;16.27;;;11.13;;
48524;SDS011;34316;51.514;-0.178;2022-12-18T05:24:12;15.40;;;10.75;;
48524;SDS011;34316;51.514;-0.178;2022-12-18T05:26:16;16.95;;;11.13;;
48524;SDS011;34316;51.514;-0.178;2022-12-18T05:28:18;15.00;;;11.13;;
48524;SDS011;34316;51.514;-0.178;2022-12-18T05:30:20;15.65;;;10.73;;
48524;SDS011;34316;51.514;-0.178;2022-12-18T05:32:22;13.93;;;10.27;;
48524;SDS011;34316;51.514;-0.178;2022-12-18T05:34:23;18.02;;;11.85;;
48524;SDS011;34316;51.514;-0.178;2022-12-18T05:36:25;14.98;;;10.30;;
48524;SDS011;34316;51.514;-0.178;2022-12-18T05:38:27;17.90;;;11.00;;
48524;SDS011;34316;51.514;-0.178;2022-12-18T05:40:30;16.45;;;11.05;;
